createdAt,value
2023-02-27T00:02:34.661Z,1.26
2023-02-27T00:12:56.118Z,1.25
2023-02-27T00:23:17.541Z,1.17
2023-02-27T00:33:38.910Z,1.09
2023-02-27T00:44:00.294Z,1.03
2023-02-27T00:54:21.673Z,1.01
2023-02-27T01:04:43.069Z,0.98
2023-02-27T01:15:05.792Z,0.96
2023-02-27T01:25:27.241Z,0.93
2023-02-27T01:35:48.682Z,0.90
2023-02-27T01:46:10.084Z,0.84
2023-02-27T01:56:32.026Z,0.77
2023-02-27T02:07:16.695Z,0.68
2023-02-27T02:17:40.224Z,0.69
2023-02-27T02:28:20.426Z,0.64
2023-02-27T02:38:50.790Z,0.55
2023-02-27T02:49:22.937Z,0.51
2023-02-27T02:59:55.338Z,0.47
2023-02-27T03:10:16.805Z,0.48
2023-02-27T03:20:41.222Z,0.46
2023-02-27T03:31:22.553Z,0.45
2023-02-27T03:41:52.274Z,0.34
2023-02-27T03:52:13.654Z,0.29
2023-02-27T04:02:36.351Z,0.28
2023-02-27T04:13:06.847Z,0.24
2023-02-27T04:23:38.417Z,0.23
2023-02-27T04:34:04.862Z,0.17
2023-02-27T04:44:26.959Z,0.13
2023-02-27T04:54:54.541Z,0.09
2023-02-27T05:05:19.028Z,0.14
2023-02-27T05:15:43.948Z,0.16
2023-02-27T05:26:11.461Z,0.20
2023-02-27T05:37:02.151Z,0.36
2023-02-27T05:47:26.936Z,0.51
2023-02-27T05:57:54.614Z,0.63
2023-02-27T06:08:16.110Z,0.77
2023-02-27T06:18:37.726Z,0.89
2023-02-27T06:28:59.913Z,1.07
2023-02-27T06:39:21.281Z,1.22
2023-02-27T06:49:42.659Z,1.34
2023-02-27T07:00:04.846Z,1.39
2023-02-27T07:10:26.601Z,1.56
2023-02-27T07:20:49.891Z,1.76
2023-02-27T07:31:11.270Z,1.98
2023-02-27T07:41:32.714Z,2.18
2023-02-27T07:51:54.111Z,2.33
2023-02-27T08:02:15.624Z,2.37
2023-02-27T08:12:37.106Z,2.42
2023-02-27T08:22:58.493Z,2.54
2023-02-27T08:33:19.911Z,2.67
2023-02-27T08:43:41.286Z,2.81
2023-02-27T08:54:03.552Z,2.94
2023-02-27T09:04:24.984Z,3.15
2023-02-27T09:14:46.391Z,3.27
2023-02-27T09:25:07.922Z,3.44
2023-02-27T09:35:29.303Z,3.61
2023-02-27T09:45:54.375Z,3.80
2023-02-27T09:56:35.541Z,3.94
2023-02-27T10:07:11.945Z,4.11
2023-02-27T10:17:39.550Z,4.33
2023-02-27T10:28:09.096Z,4.49
2023-02-27T10:38:37.303Z,4.62
2023-02-27T10:49:00.292Z,4.78
2023-02-27T10:59:38.507Z,4.89
2023-02-27T11:10:20.255Z,5.20
2023-02-27T11:20:43.533Z,5.35
2023-02-27T11:31:25.478Z,5.39
2023-02-27T11:41:46.970Z,5.52
2023-02-27T11:52:23.924Z,5.54
2023-02-27T12:02:55.355Z,5.57
2023-02-27T12:13:20.133Z,5.81
2023-02-27T12:23:50.772Z,6.08
2023-02-27T12:34:21.272Z,6.58
2023-02-27T12:44:42.723Z,6.79
2023-02-27T12:55:07.174Z,6.91
2023-02-27T13:05:47.420Z,7.02
2023-02-27T13:16:27.801Z,7.19
2023-02-27T13:26:55.310Z,7.35
2023-02-27T13:37:16.746Z,7.38
2023-02-27T13:47:47.460Z,7.42
2023-02-27T13:58:15.612Z,7.49
2023-02-27T14:08:46.538Z,7.53
2023-02-27T14:19:22.329Z,7.46
2023-02-27T14:29:45.434Z,7.48
2023-02-27T14:40:07.147Z,7.49
2023-02-27T14:50:28.574Z,7.39
2023-02-27T15:01:03.372Z,7.51
2023-02-27T15:11:25.053Z,7.39
2023-02-27T15:21:49.837Z,7.46
2023-02-27T15:32:25.027Z,7.46
2023-02-27T15:42:47.037Z,7.39
2023-02-27T15:53:08.429Z,7.32
2023-02-27T16:03:33.056Z,7.01
2023-02-27T16:13:55.447Z,6.93
2023-02-27T16:24:29.851Z,6.90
2023-02-27T16:34:51.548Z,6.89
2023-02-27T16:45:20.560Z,6.80
2023-02-27T16:55:43.474Z,6.71
2023-02-27T17:06:05.093Z,6.66
2023-02-27T17:16:26.768Z,6.64
2023-02-27T17:26:48.716Z,6.55
2023-02-27T17:37:10.755Z,6.48
2023-02-27T17:47:32.782Z,6.36
2023-02-27T17:57:54.178Z,6.27
2023-02-27T18:08:15.521Z,6.23
2023-02-27T18:18:37.733Z,6.30
2023-02-27T18:29:00.610Z,6.26
2023-02-27T18:39:22.860Z,6.16
2023-02-27T18:49:44.470Z,5.94
2023-02-27T19:00:06.558Z,5.95
2023-02-27T19:10:27.916Z,5.91
2023-02-27T19:20:49.276Z,5.94
2023-02-27T19:31:12.723Z,5.95
2023-02-27T19:41:34.157Z,5.99
2023-02-27T19:51:55.640Z,6.00
2023-02-27T20:02:17.029Z,6.02
2023-02-27T20:12:38.570Z,6.01
2023-02-27T20:23:00.129Z,6.01
2023-02-27T20:33:21.482Z,5.97
2023-02-27T20:43:43.550Z,5.95
2023-02-27T20:54:06.582Z,5.90
2023-02-27T21:04:47.194Z,5.90
2023-02-27T21:15:08.934Z,5.88
2023-02-27T21:25:30.352Z,5.88
2023-02-27T21:35:51.789Z,5.84
2023-02-27T21:46:13.536Z,5.81
2023-02-27T21:56:34.914Z,5.79
2023-02-27T22:06:56.249Z,5.79
2023-02-27T22:17:17.672Z,5.81
2023-02-27T22:27:39.016Z,5.80
2023-02-27T22:38:00.385Z,5.76
2023-02-27T22:48:23.613Z,5.79
2023-02-27T22:58:45.234Z,5.82
2023-02-27T23:09:08.234Z,5.85
2023-02-27T23:19:30.001Z,5.88
2023-02-27T23:29:51.327Z,5.97
2023-02-27T23:40:13.023Z,5.96
2023-02-27T23:50:36.383Z,5.91
